Time;durP1;ratioP1;P1;durP2;ratioP2;P2;SDS_P1;SDS_P2;PMS_P1;PMS_P2;Temp;Humidity;BMP_temperature;BMP_pressure;BME280_temperature;BME280_humidity;BME280_pressure;Samples;Min_cycle;Max_cycle;Signal;HPM_P1;HPM_P2
2021/10/01 08:18:35;;;;;;;1.30;0.40;;;15.00;99.90;;;;;;4937267;29;20287;-81
2021/10/01 08:21:03;;;;;;;1.33;0.50;;;15.10;99.90;;;;;;4937141;29;20237;-77
2021/10/01 08:23:31;;;;;;;0.30;0.23;;;15.30;99.90;;;;;;4937301;29;20216;-75
2021/10/01 08:25:58;;;;;;;1.97;0.50;;;15.40;99.90;;;;;;4937173;29;20304;-78
2021/10/01 08:28:25;;;;;;;0.90;0.40;;;15.40;99.90;;;;;;4937217;29;20213;-73
2021/10/01 08:30:51;;;;;;;1.43;0.30;;;15.50;99.90;;;;;;4936681;29;20229;-77
2021/10/01 08:33:18;;;;;;;3.17;0.83;;;15.50;99.90;;;;;;4936838;29;20216;-78
2021/10/01 08:35:45;;;;;;;1.00;0.40;;;15.70;99.90;;;;;;4936962;29;20240;-79
2021/10/01 08:38:12;;;;;;;1.00;0.53;;;15.70;99.90;;;;;;4937145;29;20561;-79
2021/10/01 08:40:40;;;;;;;1.47;0.50;;;15.80;99.90;;;;;;4936909;29;20225;-77
2021/10/01 08:43:07;;;;;;;3.57;0.60;;;16.00;99.90;;;;;;4937129;29;20213;-79
2021/10/01 08:45:35;;;;;;;0.70;0.30;;;16.10;99.90;;;;;;4936976;29;20209;-76
2021/10/01 08:48:02;;;;;;;1.37;0.40;;;16.50;99.90;;;;;;4931865;29;20232;-73
2021/10/01 08:50:30;;;;;;;2.60;0.50;;;16.90;99.90;;;;;;4935131;29;20229;-73
2021/10/01 08:52:59;;;;;;;2.70;0.40;;;17.20;99.90;;;;;;4935259;29;20546;-74
2021/10/01 08:55:27;;;;;;;0.80;0.37;;;17.40;99.90;;;;;;4935138;29;20276;-76
2021/10/01 08:57:55;;;;;;;1.60;0.40;;;17.40;99.90;;;;;;4935365;29;20209;-73
2021/10/01 09:00:22;;;;;;;1.17;0.30;;;17.20;99.90;;;;;;4935398;29;20324;-77
2021/10/01 09:02:49;;;;;;;2.30;0.70;;;16.80;99.90;;;;;;4935113;29;20219;-76
2021/10/01 09:05:16;;;;;;;2.57;0.40;;;16.60;99.90;;;;;;4935848;29;20209;-78
2021/10/01 09:07:43;;;;;;;1.37;0.33;;;16.60;99.90;;;;;;4937379;29;20219;-78
2021/10/01 09:10:12;;;;;;;2.97;0.33;;;16.50;99.90;;;;;;4935959;29;20568;-71
2021/10/01 09:12:40;;;;;;;4.63;0.40;;;16.50;99.90;;;;;;4934862;29;20304;-73
2021/10/01 09:15:09;;;;;;;1.57;0.40;;;16.70;99.90;;;;;;4935102;29;20324;-70
2021/10/01 09:17:36;;;;;;;2.17;0.30;;;16.70;99.90;;;;;;4934824;29;20208;-72
2021/10/01 09:20:05;;;;;;;1.97;0.50;;;16.60;99.90;;;;;;4934954;29;20209;-73
2021/10/01 09:22:35;;;;;;;1.27;0.60;;;16.50;99.90;;;;;;4934202;29;20201;-73
2021/10/01 09:25:12;;;;;;;2.77;0.47;;;16.60;99.90;;;;;;4935512;29;20223;-76
2021/10/01 09:27:41;;;;;;;1.80;0.30;;;16.70;99.90;;;;;;4934681;29;20213;-72
2021/10/01 09:30:11;;;;;;;2.10;0.30;;;16.70;99.90;;;;;;4934665;29;20873;-71
2021/10/01 09:32:39;;;;;;;2.80;0.57;;;16.90;99.90;;;;;;4934878;29;20219;-75
2021/10/01 09:35:15;;;;;;;1.87;0.57;;;17.00;99.90;;;;;;4934324;29;20236;-71
2021/10/01 09:37:42;;;;;;;1.70;0.40;;;17.00;99.90;;;;;;4934526;29;20316;-69
2021/10/01 09:40:11;;;;;;;1.13;0.30;;;17.20;99.90;;;;;;4934718;29;20212;-71
2021/10/01 09:42:45;;;;;;;2.80;0.20;;;17.30;99.90;;;;;;4934227;29;20220;-71
2021/10/01 09:45:15;;;;;;;1.90;0.40;;;17.50;99.90;;;;;;4934851;29;20212;-74
2021/10/01 09:47:45;;;;;;;0.60;0.33;;;17.70;99.90;;;;;;4934360;29;20283;-72
2021/10/01 09:50:15;;;;;;;2.60;0.30;;;17.90;99.90;;;;;;4934083;29;20231;-72
2021/10/01 09:52:45;;;;;;;5.67;0.40;;;17.90;99.90;;;;;;4934400;29;20244;-74
2021/10/01 09:55:13;;;;;;;1.63;0.50;;;18.00;99.90;;;;;;4934520;29;20292;-72
2021/10/01 09:57:58;;;;;;;3.60;0.63;;;18.10;99.90;;;;;;4934643;29;20209;-74
2021/10/01 10:00:35;;;;;;;1.47;0.50;;;18.10;99.90;;;;;;4934535;29;20243;-71
2021/10/01 10:03:02;;;;;;;1.47;0.37;;;18.20;99.90;;;;;;4934570;29;20301;-74
2021/10/01 10:05:55;;;;;;;1.80;0.50;;;17.90;99.90;;;;;;4934801;29;20671;-75
2021/10/01 10:08:24;;;;;;;3.27;0.50;;;17.90;99.90;;;;;;4934747;29;20228;-72
2021/10/01 10:10:54;;;;;;;1.67;0.43;;;18.00;99.90;;;;;;4934239;29;20233;-74
2021/10/01 10:13:44;;;;;;;1.33;0.40;;;17.80;99.90;;;;;;4934338;29;20663;-73
2021/10/01 10:16:15;;;;;;;2.77;0.50;;;18.00;99.90;;;;;;4934777;29;20353;-74
2021/10/01 10:18:42;;;;;;;1.20;0.40;;;18.10;99.90;;;;;;4933817;29;20211;-73
2021/10/01 10:21:09;;;;;;;1.73;0.30;;;18.20;99.90;;;;;;4934192;29;20570;-74
2021/10/01 10:23:36;;;;;;;3.57;0.60;;;18.30;99.90;;;;;;4934193;29;20213;-71
2021/10/01 10:26:03;;;;;;;1.60;0.60;;;18.40;99.90;;;;;;4934634;29;20209;-73
2021/10/01 10:28:30;;;;;;;1.67;0.40;;;18.50;99.90;;;;;;4931978;29;20209;-70
2021/10/01 10:30:57;;;;;;;0.87;0.23;;;18.50;99.90;;;;;;4934185;29;20225;-72
2021/10/01 10:33:39;;;;;;;0.50;0.20;;;18.60;99.90;;;;;;4936586;29;20208;-77
2021/10/01 10:36:28;;;;;;;1.80;0.20;;;18.40;99.90;;;;;;4937209;29;20247;-79
2021/10/01 10:38:56;;;;;;;0.87;0.30;;;18.40;99.90;;;;;;4937876;29;20205;-75
2021/10/01 10:41:23;;;;;;;0.90;0.50;;;18.40;99.90;;;;;;4938049;29;20281;-72
2021/10/01 10:43:51;;;;;;;1.10;0.40;;;18.60;99.90;;;;;;4937564;29;20656;-70
2021/10/01 10:46:42;;;;;;;1.43;0.50;;;18.80;99.90;;;;;;4938591;29;20200;-74
2021/10/01 10:49:24;;;;;;;2.17;0.43;;;18.80;99.90;;;;;;4938073;29;20660;-73
2021/10/01 10:52:02;;;;;;;4.07;0.50;;;18.40;99.90;;;;;;4937328;29;20229;-76
2021/10/01 10:54:31;;;;;;;1.57;0.40;;;18.10;99.90;;;;;;4938281;29;20294;-68
2021/10/01 10:57:29;;;;;;;2.40;0.63;;;18.10;99.90;;;;;;4937467;29;20232;-74
2021/10/01 10:59:58;;;;;;;1.97;0.40;;;18.10;99.90;;;;;;4937338;29;20212;-73
2021/10/01 11:02:28;;;;;;;2.47;0.40;;;18.30;99.90;;;;;;4937290;29;20281;-72
2021/10/01 11:05:18;;;;;;;0.87;0.33;;;18.20;99.90;;;;;;4937259;29;20241;-70
2021/10/01 11:07:47;;;;;;;3.03;0.50;;;18.20;99.90;;;;;;4936503;29;20307;-75
2021/10/01 11:10:40;;;;;;;4.00;0.40;;;18.20;99.90;;;;;;4938056;29;20329;-71
2021/10/01 11:13:31;;;;;;;1.13;0.40;;;18.20;99.90;;;;;;4937636;29;20244;-70
2021/10/01 11:16:18;;;;;;;3.03;0.63;;;18.30;99.90;;;;;;4936743;29;20712;-73
2021/10/01 11:19:04;;;;;;;1.03;0.40;;;18.30;99.90;;;;;;4937056;29;20212;-77
2021/10/01 11:21:35;;;;;;;1.00;0.47;;;18.30;99.90;;;;;;4936625;29;20271;-71
2021/10/01 11:24:05;;;;;;;1.50;0.37;;;18.30;99.90;;;;;;4937000;29;20220;-70
2021/10/01 11:26:33;;;;;;;1.93;0.40;;;18.40;99.90;;;;;;4937848;29;20216;-74
2021/10/01 11:29:01;;;;;;;2.93;0.50;;;18.50;99.90;;;;;;4938376;29;20228;-75
2021/10/01 11:31:37;;;;;;;2.43;0.73;;;18.50;99.90;;;;;;4937932;29;20703;-75
2021/10/01 11:34:04;;;;;;;1.70;0.57;;;18.60;99.90;;;;;;4938080;29;20219;-71
2021/10/01 11:36:36;;;;;;;0.40;0.30;;;18.60;99.90;;;;;;4937927;29;20729;-74
2021/10/01 11:39:05;;;;;;;1.03;0.27;;;18.70;99.90;;;;;;4937758;29;20575;-71
2021/10/01 11:41:33;;;;;;;1.67;0.47;;;18.60;99.90;;;;;;4937812;29;20225;-71
2021/10/01 11:44:02;;;;;;;1.23;0.37;;;18.60;99.90;;;;;;4936864;29;20208;-74
2021/10/01 11:46:32;;;;;;;0.87;0.30;;;18.50;99.90;;;;;;4938129;29;20205;-75
2021/10/01 11:49:02;;;;;;;2.03;0.30;;;18.40;99.90;;;;;;4937796;29;20698;-75
2021/10/01 11:51:29;;;;;;;3.03;0.40;;;18.30;99.90;;;;;;4937371;29;20243;-74
2021/10/01 11:54:15;;;;;;;1.87;0.50;;;18.40;99.90;;;;;;4937954;29;20664;-77
2021/10/01 11:56:55;;;;;;;2.00;0.40;;;18.40;99.90;;;;;;4937559;29;20257;-75
2021/10/01 11:59:25;;;;;;;0.67;0.30;;;18.30;99.90;;;;;;4938056;29;20243;-73
2021/10/01 12:01:57;;;;;;;1.60;0.50;;;18.20;99.90;;;;;;4937190;29;20244;-76
2021/10/01 12:04:31;;;;;;;1.87;0.60;;;18.20;99.90;;;;;;4937480;29;20204;-75
2021/10/01 12:07:01;;;;;;;3.20;0.53;;;18.40;99.90;;;;;;4937560;29;20205;-72
2021/10/01 12:09:29;;;;;;;2.20;0.50;;;18.60;99.90;;;;;;4937615;29;20208;-75
2021/10/01 12:11:56;;;;;;;3.20;0.47;;;18.50;99.90;;;;;;4937331;29;20236;-73
2021/10/01 12:14:23;;;;;;;1.50;0.40;;;18.40;99.90;;;;;;4937601;29;20553;-76
2021/10/01 12:16:57;;;;;;;3.67;0.50;;;18.50;99.90;;;;;;4937469;29;21078;-75
2021/10/01 12:19:26;;;;;;;2.23;0.30;;;18.40;99.90;;;;;;4933629;29;20208;-78
2021/10/01 12:22:03;;;;;;;2.80;0.50;;;18.40;99.90;;;;;;4935129;29;20229;-78
2021/10/01 12:24:41;;;;;;;1.47;0.50;;;18.40;99.90;;;;;;4936116;29;20220;-76
2021/10/01 12:27:08;;;;;;;1.07;0.30;;;18.40;99.90;;;;;;4935837;29;20204;-75
2021/10/01 12:29:42;;;;;;;2.57;0.67;;;18.20;99.90;;;;;;4936351;29;20211;-71
2021/10/01 12:32:10;;;;;;;1.03;0.40;;;18.20;99.90;;;;;;4935350;29;20232;-71
2021/10/01 12:34:41;;;;;;;2.77;0.50;;;18.30;99.90;;;;;;4935663;29;20583;-76
2021/10/01 12:37:10;;;;;;;1.87;0.60;;;18.40;99.90;;;;;;4935780;29;20236;-81
2021/10/01 12:39:41;;;;;;;1.60;0.63;;;18.40;99.90;;;;;;4935693;29;20680;-77
2021/10/01 12:42:09;;;;;;;1.27;0.50;;;18.40;99.90;;;;;;4935413;29;20719;-75
2021/10/01 12:44:39;;;;;;;2.10;0.27;;;18.30;99.90;;;;;;4935649;29;20213;-71
2021/10/01 12:47:13;;;;;;;1.33;0.27;;;18.10;99.90;;;;;;4935848;29;20208;-78
2021/10/01 12:49:41;;;;;;;1.80;0.50;;;18.10;99.90;;;;;;4934538;29;20214;-75
2021/10/01 12:52:11;;;;;;;0.30;0.30;;;18.10;99.90;;;;;;4935430;29;20259;-75
2021/10/01 12:54:47;;;;;;;2.10;0.63;;;18.20;99.90;;;;;;4935073;29;20303;-76
2021/10/01 12:57:23;;;;;;;4.07;0.40;;;18.20;99.90;;;;;;4935183;29;20719;-75
2021/10/01 12:59:52;;;;;;;2.23;0.40;;;18.20;99.90;;;;;;4934394;29;20248;-71
2021/10/01 13:02:20;;;;;;;1.33;0.57;;;18.10;99.90;;;;;;4934510;29;20208;-75
2021/10/01 13:04:53;;;;;;;2.20;0.60;;;18.30;99.90;;;;;;4935126;29;20215;-75
2021/10/01 13:07:26;;;;;;;1.53;0.50;;;18.30;99.90;;;;;;4935256;29;20216;-72
2021/10/01 13:09:55;;;;;;;1.73;0.50;;;18.20;99.90;;;;;;4935143;29;20216;-78
2021/10/01 13:12:34;;;;;;;3.63;0.60;;;18.20;99.90;;;;;;4934855;29;20208;-75
2021/10/01 13:15:14;;;;;;;2.53;0.30;;;18.10;99.90;;;;;;4935636;29;20205;-75
2021/10/01 13:17:41;;;;;;;0.40;0.20;;;17.90;99.90;;;;;;4934532;29;20236;-73
2021/10/01 13:20:10;;;;;;;1.47;0.40;;;17.90;99.90;;;;;;4934209;29;20292;-71
2021/10/01 13:22:54;;;;;;;1.27;0.60;;;17.90;99.90;;;;;;4934416;29;20667;-72
2021/10/01 13:25:26;;;;;;;1.27;0.40;;;17.90;99.90;;;;;;4934646;29;20683;-77
2021/10/01 13:27:55;;;;;;;2.30;0.50;;;18.00;99.90;;;;;;4934801;29;20209;-77
2021/10/01 13:30:22;;;;;;;1.23;0.60;;;18.00;99.90;;;;;;4935418;29;20232;-76
2021/10/01 13:32:50;;;;;;;1.40;0.63;;;17.90;99.90;;;;;;4934723;29;20678;-73
2021/10/01 13:35:17;;;;;;;1.63;0.50;;;17.90;99.90;;;;;;4930014;29;20206;-73
2021/10/01 13:37:44;;;;;;;0.60;0.30;;;17.90;99.90;;;;;;4909802;29;20741;-74
2021/10/01 13:40:13;;;;;;;1.37;0.30;;;17.70;99.90;;;;;;4933209;29;21616;-72
2021/10/01 13:42:41;;;;;;;1.33;0.40;;;17.70;99.90;;;;;;4935480;29;20664;-75
2021/10/01 13:45:10;;;;;;;1.30;0.67;;;17.70;99.90;;;;;;4935330;29;20660;-75
2021/10/01 13:47:37;;;;;;;1.10;0.43;;;17.70;99.90;;;;;;4935439;29;20671;-72
2021/10/01 13:50:05;;;;;;;2.27;0.70;;;17.70;99.90;;;;;;4954360;28;20219;-74
2021/10/01 13:52:33;;;;;;;0.67;0.40;;;17.80;99.90;;;;;;4954710;29;20709;-75
2021/10/01 13:54:59;;;;;;;0.80;0.50;;;17.80;99.90;;;;;;4954985;29;20208;-75
2021/10/01 13:57:26;;;;;;;1.57;0.37;;;17.90;99.90;;;;;;4941666;29;20243;-75
2021/10/01 13:59:54;;;;;;;1.83;0.40;;;18.00;99.90;;;;;;4935097;29;20952;-75
2021/10/01 14:02:21;;;;;;;1.73;0.70;;;17.90;99.90;;;;;;4935399;29;20209;-74
2021/10/01 14:04:48;;;;;;;1.67;0.63;;;17.80;99.90;;;;;;4935424;29;20568;-74
2021/10/01 14:07:15;;;;;;;4.17;0.67;;;17.80;99.90;;;;;;4934697;29;20224;-72
2021/10/01 14:09:41;;;;;;;2.57;0.47;;;17.80;99.90;;;;;;4935337;29;20220;-73
2021/10/01 14:12:09;;;;;;;4.20;0.57;;;17.60;99.90;;;;;;4935441;29;20233;-74
2021/10/01 14:14:36;;;;;;;1.40;0.60;;;17.60;99.90;;;;;;4935550;29;20213;-72
2021/10/01 14:17:04;;;;;;;1.60;0.50;;;17.70;99.90;;;;;;4935435;29;20236;-74
2021/10/01 14:19:31;;;;;;;2.00;0.50;;;17.80;99.90;;;;;;4935335;29;20216;-72
2021/10/01 14:21:58;;;;;;;1.50;0.43;;;17.90;99.90;;;;;;4935426;29;20730;-72
2021/10/01 14:24:25;;;;;;;3.83;0.40;;;17.90;99.90;;;;;;4935522;29;20213;-73
2021/10/01 14:26:52;;;;;;;1.00;0.27;;;18.10;99.90;;;;;;4935463;29;20209;-73
2021/10/01 14:29:19;;;;;;;2.10;0.63;;;18.20;99.90;;;;;;4935617;29;20213;-74
2021/10/01 14:31:45;;;;;;;1.17;0.40;;;18.30;99.90;;;;;;4935150;29;20235;-73
2021/10/01 14:34:14;;;;;;;2.23;0.50;;;18.20;99.90;;;;;;4935067;29;20219;-74
2021/10/01 14:36:40;;;;;;;0.67;0.33;;;18.30;99.90;;;;;;4935358;29;20236;-75
2021/10/01 14:39:07;;;;;;;2.70;0.50;;;18.20;99.90;;;;;;4935152;29;20213;-74
2021/10/01 14:41:34;;;;;;;1.40;0.50;;;18.10;99.90;;;;;;4935172;29;20721;-72
2021/10/01 14:44:01;;;;;;;3.10;0.40;;;18.10;99.90;;;;;;4935256;29;20219;-73
2021/10/01 14:46:28;;;;;;;0.67;0.40;;;18.00;99.90;;;;;;4935317;29;20205;-75
2021/10/01 14:48:56;;;;;;;1.23;0.30;;;17.90;99.90;;;;;;4935466;29;20215;-73
2021/10/01 14:51:24;;;;;;;1.40;0.40;;;17.90;99.90;;;;;;4935202;29;20232;-75
2021/10/01 14:53:51;;;;;;;0.80;0.37;;;17.90;99.90;;;;;;4935343;29;20213;-74
2021/10/01 14:56:19;;;;;;;1.23;0.40;;;17.80;99.90;;;;;;4935278;29;20216;-75
2021/10/01 14:58:46;;;;;;;1.13;0.30;;;17.80;99.90;;;;;;4935495;29;20213;-74
2021/10/01 15:01:12;;;;;;;1.97;0.40;;;17.90;99.90;;;;;;4935990;29;20247;-72
2021/10/01 15:03:39;;;;;;;1.73;0.30;;;17.90;99.90;;;;;;4936747;29;20209;-75
2021/10/01 15:06:06;;;;;;;0.77;0.30;;;17.80;99.90;;;;;;4936122;29;20552;-73
2021/10/01 15:08:34;;;;;;;0.80;0.23;;;17.90;99.90;;;;;;4936057;29;20213;-75
2021/10/01 15:11:01;;;;;;;1.23;0.30;;;17.80;99.90;;;;;;4935820;29;20247;-75
2021/10/01 15:13:28;;;;;;;1.17;0.50;;;17.70;99.90;;;;;;4935307;29;20209;-75
2021/10/01 15:15:55;;;;;;;5.40;0.63;;;17.70;99.90;;;;;;4935401;29;20697;-76
2021/10/01 15:18:23;;;;;;;4.13;0.57;;;17.60;99.90;;;;;;4936222;29;20603;-72
2021/10/01 15:20:50;;;;;;;1.80;0.50;;;17.70;99.90;;;;;;4938508;29;20336;-71
2021/10/01 15:23:17;;;;;;;2.33;0.57;;;17.60;99.90;;;;;;4938385;29;20216;-71
2021/10/01 15:25:45;;;;;;;1.03;0.43;;;17.50;99.90;;;;;;4938297;29;20213;-76
2021/10/01 15:28:13;;;;;;;1.77;0.37;;;17.40;99.90;;;;;;4938183;29;20228;-73
2021/10/01 15:30:42;;;;;;;1.13;0.50;;;17.30;99.90;;;;;;4938411;29;20233;-76
2021/10/01 15:33:09;;;;;;;1.00;0.37;;;17.20;99.90;;;;;;4938116;29;20660;-73
2021/10/01 15:35:36;;;;;;;2.17;0.37;;;17.10;99.90;;;;;;4938323;29;20209;-76
2021/10/01 15:38:04;;;;;;;1.37;0.20;;;17.30;99.90;;;;;;4937798;29;20251;-72
2021/10/01 15:40:33;;;;;;;2.77;0.53;;;17.20;99.90;;;;;;4938059;29;20229;-72
2021/10/01 15:43:02;;;;;;;1.37;0.53;;;17.30;99.90;;;;;;4937978;29;20209;-75
2021/10/01 15:45:29;;;;;;;1.60;0.43;;;17.30;99.90;;;;;;4938022;29;20209;-73
2021/10/01 15:47:56;;;;;;;2.20;0.37;;;17.30;99.90;;;;;;4937813;29;20209;-73
2021/10/01 15:50:23;;;;;;;0.97;0.40;;;17.40;99.90;;;;;;4937015;29;20702;-72
2021/10/01 15:52:52;;;;;;;1.57;0.60;;;17.30;99.90;;;;;;4937459;29;20231;-73
2021/10/01 15:55:20;;;;;;;3.40;0.47;;;17.20;99.90;;;;;;4937442;29;20224;-73
2021/10/01 15:57:47;;;;;;;1.23;0.20;;;17.00;99.90;;;;;;4937443;29;20240;-76
2021/10/01 16:00:17;;;;;;;1.97;0.47;;;16.80;99.90;;;;;;4937202;29;20252;-72
2021/10/01 16:02:44;;;;;;;2.33;0.47;;;16.70;99.90;;;;;;4937743;29;20220;-73
2021/10/01 16:05:13;;;;;;;1.80;0.77;;;16.50;99.90;;;;;;4937681;29;20212;-72
2021/10/01 16:07:40;;;;;;;1.53;0.53;;;16.50;99.90;;;;;;4937410;29;20216;-76
2021/10/01 16:10:09;;;;;;;0.60;0.30;;;16.50;99.90;;;;;;4937810;29;20220;-76
2021/10/01 16:12:36;;;;;;;0.60;0.30;;;16.40;99.90;;;;;;4937630;29;20498;-73
2021/10/01 16:15:04;;;;;;;2.73;0.60;;;16.30;99.90;;;;;;4937553;29;20209;-77
2021/10/01 16:17:35;;;;;;;0.63;0.40;;;16.40;99.90;;;;;;4937483;29;20590;-71
2021/10/01 16:20:02;;;;;;;2.17;0.40;;;16.40;99.90;;;;;;4937775;29;20303;-75
2021/10/01 16:22:29;;;;;;;2.87;0.70;;;16.40;99.90;;;;;;4937555;29;20661;-76
2021/10/01 16:24:56;;;;;;;3.23;0.50;;;16.30;99.90;;;;;;4937408;29;20205;-76
2021/10/01 16:27:22;;;;;;;1.47;0.80;;;16.20;99.90;;;;;;4937169;29;20668;-74
2021/10/01 16:29:50;;;;;;;3.10;0.80;;;16.10;99.90;;;;;;4936233;29;20215;-70
2021/10/01 16:32:17;;;;;;;1.10;0.50;;;16.10;99.90;;;;;;4937006;29;20667;-71
2021/10/01 16:34:45;;;;;;;1.63;0.70;;;16.00;99.90;;;;;;4936770;29;20223;-75
2021/10/01 16:37:12;;;;;;;1.90;0.50;;;16.00;99.90;;;;;;4937017;29;20236;-73
2021/10/01 16:39:39;;;;;;;2.20;0.47;;;15.90;99.90;;;;;;4936949;29;20664;-71
2021/10/01 16:42:06;;;;;;;0.77;0.40;;;15.70;99.90;;;;;;4936956;29;20288;-73
2021/10/01 16:44:33;;;;;;;1.90;0.40;;;15.60;99.90;;;;;;4936802;29;20224;-71
2021/10/01 16:46:59;;;;;;;1.77;0.43;;;15.60;99.90;;;;;;4936920;29;20216;-71
2021/10/01 16:49:26;;;;;;;3.10;0.50;;;15.60;99.90;;;;;;4937117;29;20578;-71
2021/10/01 16:51:55;;;;;;;1.20;0.40;;;15.50;99.90;;;;;;4936955;29;20235;-76
2021/10/01 16:54:22;;;;;;;2.30;0.50;;;15.50;99.90;;;;;;4936614;29;20208;-75
2021/10/01 16:56:49;;;;;;;1.47;0.40;;;15.40;99.90;;;;;;4936464;29;20219;-71
2021/10/01 16:59:16;;;;;;;0.50;0.40;;;15.30;99.90;;;;;;4936524;29;20243;-71
2021/10/01 17:01:43;;;;;;;0.40;0.30;;;15.20;99.90;;;;;;4936471;29;20240;-72
2021/10/01 17:04:09;;;;;;;1.03;0.47;;;15.20;99.90;;;;;;4936692;29;20224;-71
2021/10/01 17:06:36;;;;;;;2.83;0.50;;;15.30;99.90;;;;;;4936430;29;20220;-71
2021/10/01 17:09:04;;;;;;;1.60;0.50;;;15.20;99.90;;;;;;4926037;29;20213;-74
2021/10/01 17:11:31;;;;;;;3.77;0.60;;;15.30;99.90;;;;;;4936040;29;20233;-71
2021/10/01 17:13:58;;;;;;;2.97;0.60;;;15.30;99.90;;;;;;4935639;29;20663;-75
2021/10/01 17:16:25;;;;;;;2.00;0.50;;;15.30;99.90;;;;;;4935871;29;20208;-70
2021/10/01 17:18:52;;;;;;;2.10;0.60;;;15.30;99.90;;;;;;4936237;29;20233;-74
2021/10/01 17:21:19;;;;;;;0.80;0.50;;;15.30;99.90;;;;;;4936109;29;20233;-75
2021/10/01 17:23:46;;;;;;;1.73;0.40;;;15.30;99.90;;;;;;4936333;29;20567;-75
2021/10/01 17:26:14;;;;;;;0.70;0.40;;;15.20;99.90;;;;;;4935762;29;20675;-75
2021/10/01 17:28:41;;;;;;;0.40;0.37;;;15.20;99.90;;;;;;4935823;29;20213;-74
2021/10/01 17:31:08;;;;;;;2.33;0.57;;;15.20;99.90;;;;;;4935813;29;20232;-71
2021/10/01 17:33:35;;;;;;;5.27;1.10;;;15.20;99.90;;;;;;4935797;29;20223;-76
2021/10/01 17:36:02;;;;;;;1.80;0.53;;;15.10;99.90;;;;;;4936045;29;20216;-76
2021/10/01 17:38:28;;;;;;;2.73;0.50;;;15.10;99.90;;;;;;4935353;29;20243;-71
2021/10/01 17:40:55;;;;;;;1.20;0.70;;;15.10;99.90;;;;;;4935944;29;20240;-72
2021/10/01 17:43:23;;;;;;;2.40;0.60;;;15.10;99.90;;;;;;4936173;29;20205;-72
2021/10/01 17:45:50;;;;;;;4.47;0.90;;;15.00;99.90;;;;;;4935873;29;20205;-80
2021/10/01 17:48:17;;;;;;;1.37;0.57;;;15.10;99.90;;;;;;4935679;29;20215;-85
2021/10/01 17:50:44;;;;;;;1.43;0.50;;;15.10;99.90;;;;;;4935994;29;20239;-84
2021/10/01 17:53:10;;;;;;;1.60;0.87;;;15.20;99.90;;;;;;4936193;29;20219;-81
2021/10/01 17:55:38;;;;;;;2.10;0.77;;;15.30;99.90;;;;;;4935850;29;20260;-79
2021/10/01 17:58:04;;;;;;;2.17;0.67;;;15.30;99.90;;;;;;4935369;29;20323;-83
2021/10/01 18:00:38;;;;;;;1.83;0.70;;;15.30;99.90;;;;;;4935678;29;20730;-82
2021/10/01 18:03:05;;;;;;;4.53;1.17;;;15.30;99.90;;;;;;4935732;29;20205;-82
2021/10/01 18:05:32;;;;;;;1.70;0.90;;;15.20;99.90;;;;;;4935706;29;20224;-82
2021/10/01 18:07:59;;;;;;;2.20;0.90;;;15.20;99.90;;;;;;4935397;29;20676;-84
2021/10/01 18:10:25;;;;;;;1.27;0.80;;;15.10;99.90;;;;;;4934938;29;20224;-82
2021/10/01 18:12:52;;;;;;;2.20;0.63;;;15.10;99.90;;;;;;4935103;29;20215;-82
2021/10/01 18:15:19;;;;;;;1.90;0.70;;;15.00;99.90;;;;;;4933079;29;20219;-81
2021/10/01 18:17:47;;;;;;;3.57;0.97;;;15.00;99.90;;;;;;4934985;29;20228;-83
2021/10/01 18:20:14;;;;;;;3.10;0.50;;;14.90;99.90;;;;;;4935411;29;20593;-81
2021/10/01 18:22:41;;;;;;;2.53;0.63;;;14.80;99.90;;;;;;4935739;29;20232;-83
2021/10/01 18:25:08;;;;;;;2.13;0.57;;;14.70;99.90;;;;;;4935447;29;20219;-82
2021/10/01 18:27:35;;;;;;;1.37;0.90;;;14.70;99.90;;;;;;4935596;29;20209;-83
2021/10/01 18:30:03;;;;;;;0.70;0.60;;;14.70;99.90;;;;;;4935408;29;20691;-83
2021/10/01 18:32:30;;;;;;;2.90;0.80;;;14.60;99.90;;;;;;4934899;29;20242;-82
2021/10/01 18:34:58;;;;;;;1.30;0.57;;;14.60;99.90;;;;;;4935524;29;20219;-79
2021/10/01 18:37:25;;;;;;;0.70;0.37;;;14.70;99.90;;;;;;4923653;29;20204;-73
2021/10/01 18:39:52;;;;;;;1.87;0.47;;;14.70;99.90;;;;;;4923065;29;20236;-83
2021/10/01 18:42:19;;;;;;;0.87;0.60;;;14.60;99.90;;;;;;4916384;29;20229;-81
2021/10/01 18:44:46;;;;;;;2.50;1.40;;;14.70;99.90;;;;;;4923796;29;20567;-81
2021/10/01 18:47:13;;;;;;;1.70;0.70;;;14.70;99.90;;;;;;4919029;29;20210;-84
2021/10/01 18:49:39;;;;;;;1.60;0.60;;;14.60;99.90;;;;;;4929791;29;20219;-80
2021/10/01 18:52:10;;;;;;;1.67;0.73;;;14.60;99.90;;;;;;4922236;29;20232;-83
2021/10/01 18:54:38;;;;;;;3.73;0.60;;;14.60;99.90;;;;;;4930131;29;20205;-82
2021/10/01 18:57:06;;;;;;;1.40;0.80;;;14.50;99.90;;;;;;4926021;29;20268;-80
2021/10/01 18:59:33;;;;;;;2.73;0.73;;;14.50;99.90;;;;;;4933415;29;20630;-81
2021/10/01 19:02:00;;;;;;;1.27;0.67;;;14.50;99.90;;;;;;4928399;29;20252;-81
2021/10/01 19:04:27;;;;;;;2.43;1.00;;;14.60;99.90;;;;;;4925441;29;20215;-81
2021/10/01 19:06:54;;;;;;;2.50;0.73;;;14.50;99.90;;;;;;4927260;29;20275;-81
2021/10/01 19:09:22;;;;;;;3.83;0.80;;;14.40;99.90;;;;;;4925696;29;20219;-80
2021/10/01 19:11:49;;;;;;;1.23;0.70;;;14.40;99.90;;;;;;4922839;29;20229;-79
2021/10/01 19:14:16;;;;;;;2.30;0.70;;;14.40;99.90;;;;;;4929907;29;20209;-81
2021/10/01 19:16:43;;;;;;;1.33;0.70;;;14.40;99.90;;;;;;4925376;29;20201;-81
2021/10/01 19:19:10;;;;;;;1.60;0.70;;;14.40;99.90;;;;;;4931689;29;20259;-74
2021/10/01 19:21:39;;;;;;;3.00;0.77;;;14.30;99.90;;;;;;4935735;29;20233;-81
2021/10/01 19:24:10;;;;;;;4.33;1.10;;;14.30;99.90;;;;;;4927016;29;20657;-81
2021/10/01 19:32:07;;;;;;;1.47;0.60;;;14.20;99.90;;;;;;4935599;29;20295;-80
2021/10/01 19:34:36;;;;;;;1.57;0.87;;;14.10;99.90;;;;;;4927807;29;20221;-82
2021/10/01 19:37:03;;;;;;;1.63;0.70;;;14.10;99.90;;;;;;4929637;29;20204;-80
2021/10/01 19:39:32;;;;;;;1.20;0.70;;;14.00;99.90;;;;;;4921792;29;20240;-82
2021/10/01 19:42:00;;;;;;;4.20;0.80;;;14.10;99.90;;;;;;4923554;29;20876;-80
2021/10/01 19:44:27;;;;;;;3.33;1.63;;;14.10;99.90;;;;;;4932069;29;20215;-82
2021/10/01 19:46:54;;;;;;;0.87;0.63;;;14.10;99.90;;;;;;4928899;29;20209;-81
2021/10/01 19:49:21;;;;;;;2.87;0.70;;;14.00;99.90;;;;;;4923474;29;20216;-82
2021/10/01 19:51:47;;;;;;;0.97;0.70;;;14.00;99.90;;;;;;4919597;29;20320;-84
2021/10/01 19:54:14;;;;;;;4.50;0.60;;;14.10;99.90;;;;;;4932826;29;20211;-81
2021/10/01 19:56:41;;;;;;;2.77;0.70;;;14.00;99.90;;;;;;4930785;29;20215;-82
2021/10/01 19:59:10;;;;;;;4.53;0.77;;;14.00;99.90;;;;;;4923731;29;20704;-81
2021/10/01 20:01:39;;;;;;;0.97;0.67;;;14.00;99.90;;;;;;4929533;29;20235;-80
2021/10/01 20:04:06;;;;;;;1.60;0.80;;;14.00;99.90;;;;;;4923996;29;20605;-81
2021/10/01 20:06:33;;;;;;;2.67;0.90;;;14.00;99.90;;;;;;4921526;29;20214;-82
2021/10/01 20:09:00;;;;;;;1.80;0.53;;;14.10;99.90;;;;;;4929194;29;20208;-81
2021/10/01 20:11:27;;;;;;;1.27;0.60;;;14.20;99.90;;;;;;4923330;29;20304;-80
2021/10/01 20:13:55;;;;;;;1.43;0.60;;;14.20;99.90;;;;;;4926791;29;20200;-80
2021/10/01 20:16:27;;;;;;;0.77;0.60;;;14.30;99.90;;;;;;4929675;29;20426;-80
2021/10/01 20:21:47;;;;;;;0.60;0.47;;;14.20;99.90;;;;;;4924177;29;20233;-80
2021/10/01 20:24:32;;;;;;;0.87;0.60;;;14.20;99.90;;;;;;4928127;29;20308;-82
2021/10/01 20:49:00;;;;;;;1.80;0.70;;;14.20;99.90;;;;;;4926342;29;20232;-80
2021/10/01 20:51:30;;;;;;;1.23;0.77;;;14.20;99.90;;;;;;4930406;29;20316;-81
2021/10/01 20:53:57;;;;;;;1.80;0.90;;;14.10;99.90;;;;;;4933597;29;20205;-81
2021/10/01 20:56:24;;;;;;;1.00;0.70;;;14.10;99.90;;;;;;4926452;29;20299;-81
2021/10/01 20:58:58;;;;;;;0.93;0.80;;;14.20;99.90;;;;;;4929391;29;20236;-81
2021/10/01 21:01:44;;;;;;;1.87;0.80;;;14.30;99.90;;;;;;4928688;29;20228;-81
2021/10/01 21:04:39;;;;;;;0.97;0.80;;;14.20;99.90;;;;;;4923063;29;20221;-80
2021/10/01 21:43:33;;;;;;;3.53;1.10;;;14.50;99.90;;;;;;4907028;29;20214;-81
2021/10/01 21:46:12;;;;;;;2.30;1.20;;;14.60;99.90;;;;;;4923308;29;20344;-81
2021/10/01 21:48:40;;;;;;;2.53;1.50;;;14.70;99.90;;;;;;4930528;29;20216;-79
2021/10/01 21:51:07;;;;;;;2.33;1.53;;;14.80;99.90;;;;;;4926289;29;20233;-81
2021/10/01 21:53:37;;;;;;;4.40;1.80;;;14.70;99.90;;;;;;4927348;29;20205;-78
2021/10/01 21:56:04;;;;;;;2.20;1.53;;;14.70;99.90;;;;;;4923090;29;20653;-81
